Portada
METAR-TAF:

METAR-TAF

Aeropuertos :

Pointe-Noire, Congo

Aeropuerto de Pointe-Noire

latitud: 04-49S, longitud: 011-54E, altitud: 17 m

Observación

El informe se hizo hace 30 minutos, a las 19:00 UTC
Viento 4 kt del oeste
Temperatura 22°C
Humedad 94%
Presión 1012 hPa
Visibilidad: 8000 m
Escasas nubes a una altura de 1000 ft

METAR: FCPP 171900Z 26004KT 8000 FEW010 22/21 Q1012 NOSIG

Hora: 20:30 (19:30 UTC)

Pronóstico

El informe se hizo hace 2 horas y 30 minutos, a las 17:00 UTC
Pronóstico válido del 17 a las 18 UTC al 18 a las 18 UTC
Viento 4 kt del sur-suroeste
Visibilidad: 8000 m
Nubes dispersas a una altura de 1000 ft
Cielo cubierto a una altura de 2300 ft
Evolucionando progresivamente
del 18 a las 03 UTC al 18 a las 05 UTC
Visibilidad: 4000 m
neblina
Evolucionando progresivamente
del 18 a las 06 UTC al 18 a las 08 UTC
Visibilidad: 8000 m

TAF: FCPP 171700Z 1718/1818 20004KT 8000 SCT010 OVC023 BECMG 1803/1805 4000 BR BECMG 1806/1808 8000 NSW

Observaciones y pronósticos meteorológicos de más de 4000 aeropuertos (mensajes METAR y TAF).

Los puntos amarillos y rojos representan las estaciones disponibles.

Ponga el ratón en el punto deseado para ver el nombre de la estación.

Haga clic para ver las observaciones y los pronósticos meteorológicos.

Para cambiar el mapa : haga clic en los botones verdes con una cruz de color negro para hacer un zoom, en el botón verde con un guión para alejar o en las flechas verdes para mapas adyacentes.


METAR-TAF: